createdAt,value
2019-05-02T00:01:31.951Z,41.23
2019-05-02T00:04:01.472Z,41.77
2019-05-02T00:06:31.527Z,40.00
2019-05-02T00:09:03.946Z,41.47
2019-05-02T00:11:32.831Z,37.97
2019-05-02T00:14:03.297Z,39.63
2019-05-02T00:16:32.795Z,38.67
2019-05-02T00:19:02.264Z,38.73
2019-05-02T00:21:32.886Z,43.10
2019-05-02T00:24:04.236Z,40.27
2019-05-02T00:26:33.850Z,40.57
2019-05-02T00:29:03.565Z,39.47
2019-05-02T00:31:33.244Z,39.63
2019-05-02T00:34:02.950Z,38.80
2019-05-02T00:36:32.579Z,38.10
2019-05-02T00:39:02.293Z,39.70
2019-05-02T00:41:33.167Z,39.00
2019-05-02T00:44:06.058Z,40.97
2019-05-02T00:46:34.895Z,40.37
2019-05-02T00:49:05.852Z,38.53
2019-05-02T00:51:35.344Z,38.53
2019-05-02T00:54:05.084Z,37.80
2019-05-02T00:56:34.562Z,40.37
2019-05-02T00:59:07.642Z,37.47
2019-05-02T01:01:40.148Z,37.57
2019-05-02T01:04:16.999Z,36.97
2019-05-02T01:06:49.247Z,36.57
2019-05-02T01:09:17.700Z,38.43
2019-05-02T01:11:47.149Z,37.87
2019-05-02T01:14:16.663Z,38.63
2019-05-02T01:16:49.470Z,39.07
2019-05-02T01:19:18.025Z,38.93
2019-05-02T01:21:47.520Z,35.60
2019-05-02T01:24:17.173Z,34.87
2019-05-02T01:26:51.077Z,37.43
2019-05-02T01:29:24.789Z,36.13
2019-05-02T01:31:58.079Z,37.33
2019-05-02T01:34:29.313Z,35.57
2019-05-02T01:37:01.455Z,36.00
2019-05-02T01:39:31.040Z,38.57
2019-05-02T01:42:04.223Z,36.47
2019-05-02T01:44:36.471Z,35.27
2019-05-02T01:47:02.972Z,34.97
2019-05-02T01:49:32.489Z,37.50
2019-05-02T01:52:01.974Z,37.60
2019-05-02T01:54:31.538Z,37.87
2019-05-02T01:57:03.912Z,38.03
2019-05-02T01:59:33.831Z,36.47
2019-05-02T02:02:03.597Z,39.20
2019-05-02T02:04:33.079Z,37.83
2019-05-02T02:07:02.813Z,37.07
2019-05-02T02:09:32.576Z,38.57
2019-05-02T02:12:04.911Z,36.80
2019-05-02T02:14:33.343Z,32.67
2019-05-02T02:17:02.914Z,33.83
2019-05-02T02:19:34.646Z,35.90
2019-05-02T02:22:07.113Z,34.47
2019-05-02T02:24:38.516Z,32.83
2019-05-02T02:27:08.099Z,33.63
2019-05-02T02:29:38.981Z,33.23
2019-05-02T02:32:08.857Z,32.23
2019-05-02T02:34:38.388Z,32.27
2019-05-02T02:37:13.027Z,35.17
2019-05-02T02:39:39.200Z,36.77
2019-05-02T02:42:08.990Z,36.93
2019-05-02T02:44:49.481Z,37.30
2019-05-02T02:47:20.992Z,40.83
2019-05-02T02:49:55.903Z,37.63
2019-05-02T02:52:21.647Z,38.27
2019-05-02T02:54:51.120Z,38.40
2019-05-02T02:57:26.517Z,38.70
2019-05-02T02:59:51.881Z,36.77
2019-05-02T03:02:21.448Z,39.33
2019-05-02T03:04:50.916Z,39.93
2019-05-02T03:07:25.763Z,37.23
2019-05-02T03:09:51.840Z,40.10
2019-05-02T03:12:21.217Z,38.97
2019-05-02T03:14:52.627Z,42.27
2019-05-02T03:17:26.175Z,42.83
2019-05-02T03:20:00.316Z,43.13
2019-05-02T03:22:25.082Z,43.83
2019-05-02T03:24:54.700Z,42.27
2019-05-02T03:27:29.892Z,41.20
2019-05-02T03:29:55.468Z,44.73
2019-05-02T03:32:32.722Z,46.23
2019-05-02T03:34:56.739Z,44.80
2019-05-02T03:37:26.297Z,45.20
2019-05-02T03:39:58.054Z,45.07
2019-05-02T03:42:27.244Z,45.10
2019-05-02T03:45:04.119Z,44.07
2019-05-02T03:47:28.003Z,45.73
2019-05-02T03:49:59.101Z,43.50
2019-05-02T03:52:28.687Z,47.10
2019-05-02T03:54:58.853Z,45.43
2019-05-02T03:57:33.178Z,43.47
2019-05-02T04:00:00.099Z,44.20
2019-05-02T04:02:29.665Z,43.57
2019-05-02T04:05:00.634Z,44.30
2019-05-02T04:07:39.728Z,42.07
2019-05-02T04:10:03.221Z,41.33
2019-05-02T04:12:33.958Z,40.10
2019-05-02T04:15:04.690Z,39.53
2019-05-02T04:17:37.166Z,41.40
2019-05-02T04:20:10.197Z,39.37
2019-05-02T04:22:42.851Z,41.37
2019-05-02T04:25:10.920Z,40.80
2019-05-02T04:27:41.224Z,37.87
2019-05-02T04:30:14.053Z,38.93
2019-05-02T04:32:43.133Z,41.47
2019-05-02T04:35:12.865Z,38.67
2019-05-02T04:37:43.822Z,37.67
2019-05-02T04:40:13.531Z,37.00
2019-05-02T04:42:43.086Z,39.73
2019-05-02T04:45:25.114Z,39.07
2019-05-02T04:47:54.767Z,38.97
2019-05-02T04:50:18.645Z,40.60
2019-05-02T04:52:52.508Z,40.30
2019-05-02T04:55:26.239Z,41.37
2019-05-02T04:57:51.014Z,38.70
2019-05-02T05:00:28.608Z,42.20
2019-05-02T05:02:58.260Z,41.47
2019-05-02T05:05:31.024Z,41.97
2019-05-02T05:07:59.271Z,42.13
2019-05-02T05:10:40.252Z,39.73
2019-05-02T05:13:00.167Z,41.50
2019-05-02T05:15:40.199Z,38.37
2019-05-02T05:18:04.533Z,38.50
2019-05-02T05:20:32.565Z,41.10
2019-05-02T05:23:02.243Z,40.37
2019-05-02T05:25:37.861Z,38.60
2019-05-02T05:28:09.088Z,38.03
2019-05-02T05:30:45.124Z,37.33
2019-05-02T05:33:10.447Z,37.63
2019-05-02T05:35:43.306Z,39.07
2019-05-02T05:38:11.657Z,37.97
2019-05-02T05:40:41.311Z,35.10
2019-05-02T05:43:15.473Z,40.70
2019-05-02T05:45:53.510Z,39.57
2019-05-02T05:48:13.977Z,41.10
2019-05-02T05:50:43.751Z,41.20
2019-05-02T05:53:17.305Z,40.30
2019-05-02T05:55:47.225Z,38.70
2019-05-02T05:58:18.618Z,40.20
2019-05-02T06:00:53.687Z,42.27
2019-05-02T06:03:18.876Z,39.87
2019-05-02T06:05:48.673Z,40.33
2019-05-02T06:08:19.807Z,42.57
2019-05-02T06:10:49.684Z,41.43
2019-05-02T06:13:19.442Z,41.97
2019-05-02T06:16:01.538Z,42.03
2019-05-02T06:18:20.779Z,40.10
2019-05-02T06:20:50.605Z,39.10
2019-05-02T06:23:20.412Z,42.43
2019-05-02T06:25:49.986Z,41.80
2019-05-02T06:28:19.493Z,38.10
2019-05-02T06:30:49.110Z,40.23
2019-05-02T06:33:18.738Z,38.53
2019-05-02T06:35:51.765Z,40.60
2019-05-02T06:38:21.633Z,38.40
2019-05-02T06:40:50.714Z,36.03
2019-05-02T06:43:20.224Z,38.07
2019-05-02T06:45:49.936Z,38.77
2019-05-02T06:48:19.776Z,36.57
2019-05-02T06:50:49.395Z,40.10
2019-05-02T06:53:19.173Z,37.77
2019-05-02T06:55:48.815Z,37.97
2019-05-02T06:58:18.327Z,37.90
2019-05-02T07:00:57.469Z,38.30
2019-05-02T07:03:19.246Z,38.67
2019-05-02T07:05:49.333Z,41.93
2019-05-02T07:08:19.457Z,41.80
2019-05-02T07:10:49.113Z,40.13
2019-05-02T07:13:18.718Z,39.13
2019-05-02T07:15:55.583Z,40.23
2019-05-02T07:18:32.396Z,41.47
2019-05-02T07:21:01.993Z,40.83
2019-05-02T07:23:31.469Z,38.97
2019-05-02T07:26:01.279Z,41.60
2019-05-02T07:28:31.016Z,41.50
2019-05-02T07:31:01.025Z,41.27
2019-05-02T07:33:32.431Z,43.23
2019-05-02T07:36:02.220Z,40.10
2019-05-02T07:38:31.864Z,41.07
2019-05-02T07:41:01.600Z,42.50
2019-05-02T07:43:31.259Z,42.30
2019-05-02T07:46:00.703Z,44.40
2019-05-02T07:48:30.358Z,43.87
2019-05-02T07:51:00.414Z,43.83
2019-05-02T07:53:30.047Z,43.50
2019-05-02T07:55:59.580Z,44.10
2019-05-02T07:58:29.599Z,41.73
2019-05-02T08:00:59.115Z,42.57
2019-05-02T08:03:29.457Z,41.10
2019-05-02T08:06:00.101Z,43.83
2019-05-02T08:08:31.643Z,43.83
2019-05-02T08:11:02.877Z,42.40
2019-05-02T08:13:32.067Z,42.97
2019-05-02T08:16:01.559Z,43.07
2019-05-02T08:18:31.747Z,39.43
2019-05-02T08:21:01.467Z,39.50
2019-05-02T08:23:31.168Z,41.57
2019-05-02T08:26:00.920Z,39.60
2019-05-02T08:28:32.037Z,40.40
2019-05-02T08:31:01.549Z,38.67
2019-05-02T08:33:34.894Z,37.60
2019-05-02T08:36:02.323Z,39.37
2019-05-02T08:38:31.818Z,36.37
2019-05-02T08:41:01.585Z,38.27
2019-05-02T08:43:31.431Z,40.80
2019-05-02T08:46:01.081Z,38.33
2019-05-02T08:48:31.029Z,39.00
2019-05-02T08:51:00.497Z,39.33
2019-05-02T08:53:30.003Z,39.97
2019-05-02T08:55:59.495Z,38.17
2019-05-02T08:58:29.373Z,38.53
2019-05-02T09:00:59.017Z,39.17
2019-05-02T09:03:28.572Z,38.43
2019-05-02T09:06:05.650Z,36.57
2019-05-02T09:08:29.426Z,38.43
2019-05-02T09:10:58.946Z,38.50
2019-05-02T09:13:29.540Z,39.80
2019-05-02T09:15:59.194Z,38.37
2019-05-02T09:18:35.136Z,40.53
2019-05-02T09:21:02.005Z,38.20
2019-05-02T09:23:33.142Z,39.37
2019-05-02T09:26:02.733Z,40.37
2019-05-02T09:28:32.290Z,40.00
2019-05-02T09:31:05.269Z,38.97
2019-05-02T09:33:36.816Z,37.87
2019-05-02T09:36:04.890Z,40.53
2019-05-02T09:38:34.465Z,43.17
2019-05-02T09:41:16.069Z,40.80
2019-05-02T09:43:38.965Z,41.50
2019-05-02T09:46:12.866Z,40.23
2019-05-02T09:48:39.375Z,39.33
2019-05-02T09:51:12.753Z,42.83
2019-05-02T09:53:40.258Z,40.80
2019-05-02T09:56:09.916Z,40.03
2019-05-02T09:58:39.474Z,40.70
2019-05-02T10:01:13.818Z,37.77
2019-05-02T10:03:43.414Z,38.93
2019-05-02T10:06:17.891Z,38.17
2019-05-02T10:08:46.569Z,37.23
2019-05-02T10:11:16.854Z,36.27
2019-05-02T10:13:47.105Z,37.63
2019-05-02T10:16:17.972Z,35.10
2019-05-02T10:18:48.191Z,36.60
2019-05-02T10:21:17.862Z,35.30
2019-05-02T10:23:53.695Z,33.70
2019-05-02T10:26:24.452Z,34.77
2019-05-02T10:28:53.324Z,32.10
2019-05-02T10:31:27.584Z,33.97
2019-05-02T10:33:54.480Z,34.17
2019-05-02T10:36:24.157Z,33.23
2019-05-02T10:38:59.096Z,34.43
2019-05-02T10:41:25.016Z,31.67
2019-05-02T10:43:57.752Z,33.53
2019-05-02T10:46:37.794Z,29.50
2019-05-02T10:49:12.560Z,31.57
2019-05-02T10:51:49.383Z,30.43
2019-05-02T10:54:13.334Z,30.13
2019-05-02T10:56:42.893Z,32.70
2019-05-02T10:59:12.522Z,29.80
2019-05-02T11:01:57.293Z,30.40
2019-05-02T11:04:29.300Z,29.80
2019-05-02T11:06:59.050Z,29.57
2019-05-02T11:22:56.024Z,30.40
2019-05-02T11:25:25.772Z,27.40
2019-05-02T11:27:57.428Z,27.47
2019-05-02T11:30:26.766Z,27.40
2019-05-02T11:32:56.538Z,28.73
2019-05-02T11:35:26.264Z,29.53
2019-05-02T11:37:55.928Z,27.83
2019-05-02T11:40:25.889Z,26.00
2019-05-02T11:42:57.302Z,24.20
2019-05-02T11:45:26.819Z,24.40
2019-05-02T11:48:01.690Z,24.80
2019-05-02T11:50:33.860Z,23.50
2019-05-02T11:52:59.261Z,26.30
2019-05-02T12:03:42.283Z,24.93
2019-05-02T12:06:18.977Z,25.17
2019-05-02T12:08:45.111Z,25.17
2019-05-02T12:11:17.696Z,26.73
2019-05-02T12:13:47.375Z,26.20
2019-05-02T12:16:17.862Z,23.97
2019-05-02T12:18:47.517Z,23.60
2019-05-02T12:21:17.170Z,25.60
2019-05-02T12:23:46.778Z,26.53
2019-05-02T12:26:16.319Z,24.73
2019-05-02T12:28:46.000Z,25.10
2019-05-02T12:31:32.577Z,24.23
2019-05-02T12:34:03.496Z,23.60
2019-05-02T12:36:33.551Z,24.60
2019-05-02T12:39:04.877Z,24.60
2019-05-02T12:41:34.423Z,23.00
2019-05-02T12:44:04.371Z,24.37
2019-05-02T12:46:34.577Z,23.70
2019-05-02T12:49:04.240Z,23.20
2019-05-02T12:51:33.778Z,25.30
2019-05-02T12:54:03.671Z,21.77
2019-05-02T12:56:33.305Z,25.30
2019-05-02T12:59:02.950Z,23.30
2019-05-02T13:01:33.112Z,25.63
2019-05-02T13:04:05.021Z,25.97
2019-05-02T13:06:37.100Z,24.70
2019-05-02T13:09:09.775Z,27.60
2019-05-02T13:11:44.370Z,25.07
2019-05-02T13:14:18.952Z,24.13
2019-05-02T13:16:44.524Z,24.20
2019-05-02T13:19:14.187Z,24.27
2019-05-02T13:22:02.262Z,26.20
2019-05-02T13:24:34.031Z,21.57
2019-05-02T13:27:04.551Z,24.27
2019-05-02T13:29:34.169Z,25.47
2019-05-02T13:32:08.834Z,25.37
2019-05-02T13:34:57.122Z,25.47
2019-05-02T13:37:28.008Z,25.73
2019-05-02T13:40:05.079Z,24.87
2019-05-02T13:42:34.652Z,24.43
2019-05-02T13:45:12.602Z,22.77
2019-05-02T13:47:42.618Z,25.50
2019-05-02T13:50:13.031Z,25.13
2019-05-02T13:52:45.200Z,26.17
2019-05-02T13:55:15.688Z,26.20
2019-05-02T13:57:46.942Z,26.33
2019-05-02T14:00:19.296Z,26.90
2019-05-02T14:02:51.980Z,25.70
2019-05-02T14:05:22.325Z,25.40
2019-05-02T14:07:57.111Z,26.33
2019-05-02T14:10:26.742Z,25.67
2019-05-02T14:13:00.518Z,25.03
2019-05-02T14:15:32.400Z,25.93
2019-05-02T14:18:02.630Z,26.03
2019-05-02T14:20:33.054Z,25.27
2019-05-02T14:23:02.757Z,24.33
2019-05-02T14:25:32.423Z,25.50
2019-05-02T14:28:02.918Z,25.67
2019-05-02T14:30:39.521Z,24.53
2019-05-02T14:33:06.089Z,25.57
2019-05-02T14:35:43.117Z,24.17
2019-05-02T14:38:14.205Z,25.67
2019-05-02T14:41:02.789Z,24.77
2019-05-02T14:43:53.907Z,26.13
2019-05-02T14:46:29.035Z,27.77
2019-05-02T14:48:57.334Z,28.63
2019-05-02T14:51:27.926Z,29.80
2019-05-02T14:54:03.571Z,26.17
2019-05-02T14:56:37.503Z,28.80
2019-05-02T14:59:09.160Z,28.03
2019-05-02T15:01:42.179Z,29.47
2019-05-02T15:04:12.923Z,28.80
2019-05-02T15:06:47.274Z,28.00
2019-05-02T15:09:16.647Z,30.07
2019-05-02T15:12:03.378Z,30.67
2019-05-02T15:14:35.812Z,29.27
2019-05-02T15:17:08.043Z,29.90
2019-05-02T15:19:37.866Z,30.00
2019-05-02T15:22:07.846Z,28.40
2019-05-02T15:24:38.094Z,30.43
2019-05-02T15:27:13.261Z,30.10
2019-05-02T15:29:39.269Z,32.30
2019-05-02T15:32:16.469Z,31.27
2019-05-02T15:34:56.468Z,32.63
2019-05-02T15:37:27.318Z,41.60
2019-05-02T15:42:28.408Z,44.37
2019-05-02T15:45:01.860Z,51.90
2019-05-02T15:47:29.597Z,51.30
2019-05-02T15:49:59.107Z,53.00
2019-05-02T15:52:30.243Z,56.87
2019-05-02T15:55:02.103Z,55.50
2019-05-02T15:57:38.073Z,60.83
2019-05-02T16:00:05.299Z,61.10
2019-05-02T16:02:34.903Z,58.20
2019-05-02T16:05:07.004Z,59.70
2019-05-02T16:07:38.011Z,59.07
2019-05-02T16:10:13.113Z,60.00
2019-05-02T16:12:44.545Z,61.10
2019-05-02T16:15:21.241Z,59.63
2019-05-02T16:17:46.643Z,58.70
2019-05-02T16:20:18.262Z,57.03
2019-05-02T16:22:49.852Z,57.17
2019-05-02T16:25:24.337Z,58.80
2019-05-02T16:27:52.854Z,57.60
2019-05-02T16:30:24.124Z,56.67
2019-05-02T16:33:02.669Z,55.03
2019-05-02T16:35:34.077Z,59.80
2019-05-02T16:38:03.771Z,57.77
2019-05-02T16:40:34.885Z,60.50
2019-05-02T16:43:04.781Z,60.43
2019-05-02T16:45:34.437Z,59.17
2019-05-02T16:48:04.090Z,63.30
2019-05-02T16:50:36.694Z,58.03
2019-05-02T16:53:05.002Z,60.00
2019-05-02T16:55:34.619Z,63.40
2019-05-02T16:58:06.909Z,62.37
2019-05-02T17:00:36.813Z,64.73
2019-05-02T17:03:07.115Z,63.10
2019-05-02T17:05:39.331Z,62.63
2019-05-02T17:08:18.614Z,67.97
2019-05-02T17:10:53.720Z,67.40
2019-05-02T17:13:27.597Z,41.80
2019-05-02T17:15:54.580Z,32.43
2019-05-02T17:18:24.241Z,37.30
2019-05-02T17:20:56.751Z,40.50
2019-05-02T17:23:25.107Z,39.57
2019-05-02T17:25:54.625Z,35.30
2019-05-02T17:28:24.169Z,36.33
2019-05-02T17:30:53.782Z,34.90
2019-05-02T17:33:23.584Z,32.30
2019-05-02T17:35:54.374Z,31.07
2019-05-02T17:38:29.023Z,25.10
2019-05-02T17:40:59.165Z,20.13
2019-05-02T17:43:26.813Z,20.10
2019-05-02T17:45:56.571Z,18.80
2019-05-02T17:48:26.256Z,22.03
2019-05-02T17:50:59.353Z,23.13
2019-05-02T17:53:33.803Z,26.67
2019-05-02T17:56:01.845Z,40.97
2019-05-02T17:58:31.885Z,29.80
2019-05-02T18:01:03.322Z,21.93
2019-05-02T18:03:35.365Z,19.47
2019-05-02T18:06:07.641Z,19.67
2019-05-02T18:08:36.048Z,20.67
2019-05-02T18:11:05.886Z,21.80
2019-05-02T18:13:35.596Z,23.40
2019-05-02T18:16:07.688Z,26.43
2019-05-02T18:18:37.483Z,27.07
2019-05-02T18:21:08.452Z,28.23
2019-05-02T18:23:39.528Z,33.43
2019-05-02T18:26:09.184Z,37.30
2019-05-02T18:28:46.943Z,34.33
2019-05-02T18:31:12.062Z,37.53
2019-05-02T18:33:42.513Z,37.33
2019-05-02T18:36:12.292Z,39.57
2019-05-02T18:38:41.907Z,39.00
2019-05-02T18:41:12.054Z,40.27
2019-05-02T18:43:45.211Z,41.93
2019-05-02T18:46:16.726Z,40.97
2019-05-02T18:48:49.119Z,39.80
2019-05-02T18:51:19.026Z,44.13
2019-05-02T18:53:48.863Z,43.10
2019-05-02T18:56:18.493Z,40.57
2019-05-02T18:58:48.090Z,43.10
2019-05-02T19:01:20.770Z,44.80
2019-05-02T19:03:52.615Z,43.20
2019-05-02T19:06:22.025Z,41.00
2019-05-02T19:08:55.105Z,42.07
2019-05-02T19:11:26.761Z,43.47
2019-05-02T19:13:57.431Z,41.80
2019-05-02T19:16:28.670Z,41.80
2019-05-02T19:18:58.608Z,40.97
2019-05-02T19:21:32.089Z,44.27
2019-05-02T19:27:09.392Z,42.13
2019-05-02T19:29:38.955Z,45.63
2019-05-02T19:32:12.026Z,43.87
2019-05-02T19:34:41.719Z,44.93
2019-05-02T19:37:12.140Z,45.40
2019-05-02T19:39:46.937Z,43.97
2019-05-02T19:42:16.999Z,43.13
2019-05-02T19:44:45.345Z,46.53
2019-05-02T19:47:17.474Z,46.50
2019-05-02T19:49:47.398Z,47.20
2019-05-02T19:52:17.736Z,46.53
2019-05-02T19:54:47.520Z,45.00
2019-05-02T19:57:22.034Z,47.03
2019-05-02T19:59:48.602Z,43.10
2019-05-02T20:02:18.252Z,44.37
2019-05-02T20:04:47.915Z,44.20
2019-05-02T20:07:17.516Z,43.90
2019-05-02T20:09:47.491Z,43.67
2019-05-02T20:12:17.139Z,44.77
2019-05-02T20:14:47.614Z,43.07
2019-05-02T20:17:20.225Z,43.70
2019-05-02T20:19:50.454Z,45.20
2019-05-02T20:22:22.271Z,47.70
2019-05-02T20:24:56.873Z,46.10
2019-05-02T20:27:24.194Z,44.60
2019-05-02T20:29:53.921Z,43.50
2019-05-02T20:32:23.686Z,46.27
2019-05-02T20:34:53.285Z,46.50
2019-05-02T20:37:22.995Z,45.73
2019-05-02T20:39:52.739Z,47.40
2019-05-02T21:08:13.606Z,15.50
2019-05-02T21:10:44.927Z,16.60
2019-05-02T21:13:14.733Z,17.37
2019-05-02T21:15:45.011Z,16.47
2019-05-02T21:18:14.919Z,16.27
2019-05-02T21:21:08.153Z,17.07
2019-05-02T21:23:52.794Z,16.57
2019-05-02T21:32:16.757Z,10.90
2019-05-02T21:47:10.787Z,9.70
2019-05-02T21:49:57.170Z,9.10
2019-05-02T21:52:44.133Z,8.77
2019-05-02T21:55:18.534Z,7.60
2019-05-02T21:57:48.255Z,8.00
2019-05-02T22:00:38.601Z,7.67
2019-05-02T22:03:09.131Z,7.90
2019-05-02T22:05:39.218Z,8.40
2019-05-02T22:08:08.729Z,10.10
2019-05-02T22:10:38.314Z,9.47
2019-05-02T22:13:07.872Z,10.00
2019-05-02T22:15:37.435Z,8.90
2019-05-02T22:50:16.125Z,6.57
2019-05-02T22:52:45.640Z,7.00
2019-05-02T22:55:15.196Z,7.23
2019-05-02T22:57:45.430Z,7.20
2019-05-02T23:00:15.536Z,7.37
2019-05-02T23:02:45.040Z,7.77
2019-05-02T23:05:15.075Z,8.20
2019-05-02T23:07:44.582Z,6.43
2019-05-02T23:10:14.657Z,6.90
2019-05-02T23:12:44.177Z,7.90
2019-05-02T23:15:13.999Z,7.30
2019-05-02T23:17:43.636Z,8.13
2019-05-02T23:20:13.530Z,7.40
2019-05-02T23:22:43.151Z,7.03
2019-05-02T23:25:22.640Z,8.00
2019-05-02T23:27:53.957Z,6.97
2019-05-02T23:30:24.877Z,8.23
2019-05-02T23:32:54.412Z,7.10
2019-05-02T23:35:24.132Z,7.27
2019-05-02T23:37:54.037Z,8.00
2019-05-02T23:40:24.031Z,8.60
2019-05-02T23:42:53.493Z,7.90
2019-05-02T23:45:23.125Z,8.07
2019-05-02T23:47:52.905Z,7.90
2019-05-02T23:50:23.053Z,6.87
2019-05-02T23:52:52.949Z,7.30
2019-05-02T23:55:22.927Z,7.80
2019-05-02T23:57:52.585Z,7.70
